Time;durP1;ratioP1;P1;durP2;ratioP2;P2;SDS_P1;SDS_P2;PMS_P1;PMS_P2;Temp;Humidity;BMP_temperature;BMP_pressure;BME280_temperature;BME280_humidity;BME280_pressure;Samples;Min_cycle;Max_cycle;Signal;HPM_P1;HPM_P2
2023/05/14 00:01:34;;;;;;;;;;;11.20;99.90;;;;;;5016104;28;19995;-76
2023/05/14 00:04:03;;;;;;;;;;;11.10;99.90;;;;;;5017658;28;19975;-76
2023/05/14 00:06:30;;;;;;;;;;;11.00;99.90;;;;;;5027784;28;20021;-74
2023/05/14 00:08:57;;;;;;;;;;;11.00;99.90;;;;;;5026505;28;20358;-74
2023/05/14 00:11:24;;;;;;;;;;;10.90;99.90;;;;;;5006097;28;19948;-74
2023/05/14 00:13:50;;;;;;;;;;;10.90;99.90;;;;;;5006651;28;20326;-74
2023/05/14 00:16:17;;;;;;;;;;;10.80;99.90;;;;;;5006211;28;20465;-76
2023/05/14 00:18:44;;;;;;;;;;;10.80;99.90;;;;;;4988396;28;20303;-76
2023/05/14 00:21:12;;;;;;;;;;;10.70;99.90;;;;;;5007783;28;19936;-75
2023/05/14 00:23:40;;;;;;;;;;;10.60;99.90;;;;;;5017204;28;20294;-76
2023/05/14 00:26:06;;;;;;;;;;;10.60;99.90;;;;;;5014339;28;19929;-74
2023/05/14 00:28:33;;;;;;;;;;;10.50;99.90;;;;;;5028456;28;21005;-74
2023/05/14 00:30:59;;;;;;;;;;;10.50;99.90;;;;;;5038828;28;19913;-75
2023/05/14 00:33:26;;;;;;;;;;;10.40;99.90;;;;;;5014027;28;19929;-74
2023/05/14 00:35:53;;;;;;;;;;;11.60;99.90;;;;;;5007397;28;19932;-75
2023/05/14 00:38:22;;;;;;;;;;;10.40;99.90;;;;;;5009147;28;20366;-74
2023/05/14 00:40:50;;;;;;;;;;;10.40;99.90;;;;;;5011888;28;20015;-75
2023/05/14 00:43:17;;;;;;;;;;;10.30;99.90;;;;;;5018207;28;20118;-74
2023/05/14 00:45:44;;;;;;;;;;;10.30;99.90;;;;;;5015779;28;19934;-76
2023/05/14 00:48:11;;;;;;;;;;;10.20;99.90;;;;;;5012040;28;20359;-74
2023/05/14 00:50:38;;;;;;;;;;;10.40;99.90;;;;;;4987098;28;19936;-74
2023/05/14 00:53:08;;;;;;;;;;;10.30;99.90;;;;;;4992232;28;19926;-74
2023/05/14 00:55:37;;;;;;;;;;;10.20;99.90;;;;;;5026756;28;19929;-73
2023/05/14 00:58:06;;;;;;;;;;;10.30;99.90;;;;;;5008581;28;19944;-74
2023/05/14 01:00:32;;;;;;;;;;;10.20;99.90;;;;;;5027579;28;19929;-75
2023/05/14 01:03:00;;;;;;;;;;;10.20;99.90;;;;;;5013655;28;19948;-76
2023/05/14 01:05:29;;;;;;;;;;;10.20;99.90;;;;;;5009626;28;19936;-75
2023/05/14 01:07:59;;;;;;;;;;;10.10;99.90;;;;;;4998803;28;19929;-73
2023/05/14 01:10:28;;;;;;;;;;;10.10;99.90;;;;;;5008370;28;19934;-74
2023/05/14 01:13:00;;;;;;;;;;;9.90;99.90;;;;;;5023577;28;20227;-74
2023/05/14 01:15:28;;;;;;;;;;;9.90;99.90;;;;;;5025636;28;20032;-74
2023/05/14 01:17:59;;;;;;;;;;;9.90;99.90;;;;;;4992393;28;19925;-75
2023/05/14 01:20:26;;;;;;;;;;;9.80;99.90;;;;;;5009375;28;19936;-75
2023/05/14 01:22:54;;;;;;;;;;;9.80;99.90;;;;;;4992494;28;19952;-74
2023/05/14 01:25:20;;;;;;;;;;;9.80;99.90;;;;;;5010534;28;19930;-74
2023/05/14 01:27:52;;;;;;;;;;;9.80;99.90;;;;;;4990139;28;20321;-74
2023/05/14 01:30:21;;;;;;;;;;;9.70;99.90;;;;;;5000492;28;19929;-75
2023/05/14 01:32:50;;;;;;;;;;;9.60;99.90;;;;;;4995213;28;19933;-74
2023/05/14 01:35:17;;;;;;;;;;;9.60;99.90;;;;;;4998795;28;19936;-74
2023/05/14 01:37:45;;;;;;;;;;;9.70;99.90;;;;;;5017513;28;20368;-74
2023/05/14 01:40:15;;;;;;;;;;;9.60;99.90;;;;;;5008179;28;19935;-75
2023/05/14 01:42:42;;;;;;;;;;;9.60;99.90;;;;;;5008598;28;20058;-75
2023/05/14 01:45:09;;;;;;;;;;;9.60;99.90;;;;;;5009786;28;20025;-74
2023/05/14 01:47:36;;;;;;;;;;;9.50;99.90;;;;;;5026710;28;19940;-75
2023/05/14 01:50:02;;;;;;;;;;;9.50;99.90;;;;;;5016855;28;20394;-75
2023/05/14 01:52:29;;;;;;;;;;;9.50;99.90;;;;;;5012096;28;20401;-75
2023/05/14 01:54:57;;;;;;;;;;;9.40;99.90;;;;;;5010124;28;19929;-76
2023/05/14 01:57:25;;;;;;;;;;;9.40;99.90;;;;;;5024144;28;19929;-75
2023/05/14 01:59:52;;;;;;;;;;;9.40;99.90;;;;;;5036896;28;19930;-76
2023/05/14 02:02:19;;;;;;;;;;;9.40;99.90;;;;;;5039984;28;19937;-75
2023/05/14 02:04:45;;;;;;;;;;;9.40;99.90;;;;;;5021578;28;19937;-74
2023/05/14 02:07:12;;;;;;;;;;;9.40;99.90;;;;;;5004020;28;19940;-74
2023/05/14 02:09:39;;;;;;;;;;;9.30;99.90;;;;;;5020380;28;20291;-76
2023/05/14 02:12:07;;;;;;;;;;;9.20;99.90;;;;;;4991405;28;19929;-74
2023/05/14 02:14:35;;;;;;;;;;;9.20;99.90;;;;;;4995408;28;19952;-74
2023/05/14 02:17:02;;;;;;;;;;;9.10;99.90;;;;;;5010814;28;20256;-75
2023/05/14 02:19:29;;;;;;;;;;;9.10;99.90;;;;;;4992133;28;19933;-76
2023/05/14 02:21:55;;;;;;;;;;;9.00;99.90;;;;;;5006780;28;20042;-74
2023/05/14 02:24:22;;;;;;;;;;;9.00;99.90;;;;;;5035505;28;19940;-75
2023/05/14 02:26:49;;;;;;;;;;;9.00;99.90;;;;;;5029668;28;20189;-76
2023/05/14 02:29:15;;;;;;;;;;;9.00;99.90;;;;;;5019226;28;19933;-75
2023/05/14 02:31:44;;;;;;;;;;;8.90;99.90;;;;;;5008690;28;19929;-74
2023/05/14 02:34:11;;;;;;;;;;;8.90;99.90;;;;;;5008258;28;19932;-74
2023/05/14 02:36:37;;;;;;;;;;;8.80;99.90;;;;;;5009029;28;20023;-74
2023/05/14 02:39:04;;;;;;;;;;;8.70;99.90;;;;;;5007972;28;19929;-75
2023/05/14 02:41:31;;;;;;;;;;;8.70;99.90;;;;;;4993112;28;19971;-74
2023/05/14 02:43:57;;;;;;;;;;;8.70;99.90;;;;;;5024391;28;19948;-74
2023/05/14 02:46:24;;;;;;;;;;;8.80;99.90;;;;;;5018047;28;19929;-75
2023/05/14 02:48:52;;;;;;;;;;;8.70;99.90;;;;;;5014089;28;20051;-74
2023/05/14 02:51:19;;;;;;;;;;;10.50;99.90;;;;;;5008650;28;20419;-74
2023/05/14 02:53:46;;;;;;;;;;;8.20;99.90;;;;;;4989811;28;19941;-75
2023/05/14 02:56:13;;;;;;;;;;;8.60;99.90;;;;;;4990267;28;19929;-74
2023/05/14 02:58:39;;;;;;;;;;;8.40;99.90;;;;;;5022407;28;19930;-74
2023/05/14 03:01:06;;;;;;;;;;;8.70;99.90;;;;;;5008432;28;19933;-75
2023/05/14 03:03:34;;;;;;;;;;;8.60;99.90;;;;;;5006933;28;19926;-75
2023/05/14 03:06:02;;;;;;;;;;;8.40;99.90;;;;;;4990025;28;19929;-75
2023/05/14 03:08:28;;;;;;;;;;;8.60;99.90;;;;;;4989817;28;19933;-74
2023/05/14 03:10:55;;;;;;;;;;;8.30;99.90;;;;;;5007953;28;19951;-75
2023/05/14 03:13:22;;;;;;;;;;;8.50;99.90;;;;;;5007415;28;19932;-75
2023/05/14 03:15:53;;;;;;;;;;;8.30;99.90;;;;;;5007474;28;19929;-75
2023/05/14 03:18:20;;;;;;;;;;;8.60;99.90;;;;;;4989012;28;19936;-74
2023/05/14 03:20:47;;;;;;;;;;;8.60;99.90;;;;;;5007803;28;19960;-74
2023/05/14 03:23:15;;;;;;;;;;;8.60;99.90;;;;;;5005920;28;20307;-74
2023/05/14 03:25:42;;;;;;;;;;;8.00;99.90;;;;;;5007341;28;20024;-75
2023/05/14 03:28:08;;;;;;;;;;;8.60;99.90;;;;;;5006520;28;20394;-75
2023/05/14 03:30:35;;;;;;;;;;;8.60;99.90;;;;;;5008270;28;19925;-75
2023/05/14 03:33:03;;;;;;;;;;;8.60;99.90;;;;;;5005226;28;19929;-74
2023/05/14 03:35:30;;;;;;;;;;;8.60;99.90;;;;;;5006497;28;19929;-74
2023/05/14 03:37:58;;;;;;;;;;;8.70;99.90;;;;;;5007511;28;20338;-74
2023/05/14 03:40:26;;;;;;;;;;;8.70;99.90;;;;;;5007740;28;19937;-74
2023/05/14 03:42:52;;;;;;;;;;;8.70;99.90;;;;;;4994571;28;20572;-74
2023/05/14 03:45:19;;;;;;;;;;;8.70;99.90;;;;;;5007312;28;19936;-74
2023/05/14 03:47:46;;;;;;;;;;;8.60;99.90;;;;;;4989529;28;20453;-74
2023/05/14 03:50:13;;;;;;;;;;;8.70;99.90;;;;;;5006788;28;19929;-74
2023/05/14 03:52:39;;;;;;;;;;;8.60;99.90;;;;;;5007059;28;19973;-74
2023/05/14 03:55:06;;;;;;;;;;;8.80;99.90;;;;;;5006494;28;20376;-74
2023/05/14 03:57:35;;;;;;;;;;;8.80;99.90;;;;;;5006453;28;19933;-74
2023/05/14 04:00:02;;;;;;;;;;;8.80;99.90;;;;;;4991861;28;20394;-74
2023/05/14 04:02:29;;;;;;;;;;;;;;;;;;5014882;28;19940;-74
2023/05/14 04:04:56;;;;;;;;;;;8.90;99.90;;;;;;5016146;28;19929;-74
2023/05/14 04:07:22;;;;;;;;;;;8.90;99.90;;;;;;5023293;28;19929;-74
2023/05/14 04:09:49;;;;;;;;;;;8.90;99.90;;;;;;5011283;28;19929;-74
2023/05/14 04:12:16;;;;;;;;;;;8.90;99.90;;;;;;5000677;28;19952;-74
2023/05/14 04:14:44;;;;;;;;;;;8.90;99.90;;;;;;5030154;28;19989;-74
2023/05/14 04:17:11;;;;;;;;;;;9.00;99.90;;;;;;5005361;28;19929;-74
2023/05/14 04:19:38;;;;;;;;;;;9.00;99.90;;;;;;5006400;28;19933;-74
2023/05/14 04:22:04;;;;;;;;;;;9.10;99.90;;;;;;5020900;28;19948;-73
2023/05/14 04:24:31;;;;;;;;;;;9.10;99.90;;;;;;5024119;28;19934;-73
2023/05/14 04:26:58;;;;;;;;;;;9.20;99.90;;;;;;5015718;28;19929;-74
2023/05/14 04:29:24;;;;;;;;;;;9.20;99.90;;;;;;5007854;28;19936;-75
2023/05/14 04:31:52;;;;;;;;;;;9.30;99.90;;;;;;5009518;28;20361;-75
2023/05/14 04:34:19;;;;;;;;;;;9.40;99.90;;;;;;5008060;28;19944;-75
2023/05/14 04:36:46;;;;;;;;;;;9.40;99.90;;;;;;5015212;28;19936;-75
2023/05/14 04:39:13;;;;;;;;;;;9.50;99.90;;;;;;5011017;28;20361;-75
2023/05/14 04:41:41;;;;;;;;;;;9.60;99.90;;;;;;5010802;28;19929;-75
2023/05/14 04:44:08;;;;;;;;;;;9.70;99.90;;;;;;5017917;28;19935;-74
2023/05/14 04:46:34;;;;;;;;;;;9.80;99.90;;;;;;5024679;28;19933;-74
2023/05/14 04:49:02;;;;;;;;;;;9.90;99.90;;;;;;5010267;28;20413;-75
2023/05/14 04:51:29;;;;;;;;;;;9.20;99.90;;;;;;5023466;28;19925;-75
2023/05/14 04:53:56;;;;;;;;;;;10.10;99.90;;;;;;5019749;28;19933;-74
2023/05/14 04:56:23;;;;;;;;;;;9.50;99.90;;;;;;5020247;28;19937;-75
2023/05/14 04:58:49;;;;;;;;;;;10.40;99.90;;;;;;5018132;28;19926;-75
2023/05/14 05:01:16;;;;;;;;;;;10.40;99.90;;;;;;5031194;28;19933;-75
2023/05/14 05:03:43;;;;;;;;;;;10.50;99.90;;;;;;5033554;28;19975;-75
2023/05/14 05:06:11;;;;;;;;;;;10.40;99.90;;;;;;5030201;28;19925;-75
2023/05/14 05:08:37;;;;;;;;;;;10.40;99.90;;;;;;5011602;28;19925;-75
2023/05/14 05:11:04;;;;;;;;;;;10.40;99.90;;;;;;5010042;28;20796;-72
2023/05/14 05:13:31;;;;;;;;;;;10.40;99.90;;;;;;5000732;28;19940;-74
2023/05/14 05:15:58;;;;;;;;;;;10.40;99.90;;;;;;4993809;28;20044;-73
2023/05/14 05:18:25;;;;;;;;;;;10.50;99.90;;;;;;4990030;28;19934;-74
2023/05/14 05:20:52;;;;;;;;;;;10.50;99.90;;;;;;5008820;28;19929;-75
2023/05/14 05:23:20;;;;;;;;;;;10.60;99.90;;;;;;5009826;28;19964;-74
2023/05/14 05:25:46;;;;;;;;;;;10.80;99.90;;;;;;5009428;28;19936;-74
2023/05/14 05:28:13;;;;;;;;;;;10.90;99.90;;;;;;5008607;28;20138;-74
2023/05/14 05:30:40;;;;;;;;;;;11.20;99.90;;;;;;5009349;28;19933;-74
2023/05/14 05:33:07;;;;;;;;;;;11.40;99.90;;;;;;5007987;28;19933;-75
2023/05/14 05:35:33;;;;;;;;;;;11.60;99.90;;;;;;5020670;28;19929;-74
2023/05/14 05:38:00;;;;;;;;;;;11.90;99.90;;;;;;5028775;28;19926;-74
2023/05/14 05:40:28;;;;;;;;;;;12.80;99.90;;;;;;5025717;28;20626;-74
2023/05/14 05:42:55;;;;;;;;;;;15.50;99.90;;;;;;5008901;28;19930;-74
2023/05/14 05:45:22;;;;;;;;;;;15.80;99.90;;;;;;5007819;28;20362;-74
2023/05/14 05:47:48;;;;;;;;;;;17.10;99.90;;;;;;5008591;28;19937;-74
2023/05/14 05:50:15;;;;;;;;;;;17.50;99.90;;;;;;5008439;28;19992;-73
2023/05/14 05:52:42;;;;;;;;;;;17.60;99.90;;;;;;5008229;28;20429;-75
2023/05/14 05:55:09;;;;;;;;;;;17.50;99.90;;;;;;5009209;28;19933;-74
2023/05/14 05:57:37;;;;;;;;;;;17.40;99.90;;;;;;5024122;28;20399;-75
2023/05/14 06:00:11;;;;;;;;;;;17.30;99.90;;;;;;5013563;28;20016;-74
2023/05/14 06:02:39;;;;;;;;;;;17.80;99.90;;;;;;5012305;28;19929;-74
2023/05/14 06:05:07;;;;;;;;;;;17.90;99.90;;;;;;5017084;28;20292;-74
2023/05/14 06:07:34;;;;;;;;;;;18.90;99.90;;;;;;5008706;28;19930;-74
2023/05/14 06:10:00;;;;;;;;;;;20.80;99.90;;;;;;5014014;28;19925;-74
2023/05/14 06:12:27;;;;;;;;;;;22.70;99.90;;;;;;5008627;28;19983;-74
2023/05/14 06:14:56;;;;;;;;;;;24.70;99.90;;;;;;5008463;28;19929;-74
2023/05/14 06:17:23;;;;;;;;;;;26.30;99.90;;;;;;5008100;28;20609;-74
2023/05/14 06:19:50;;;;;;;;;;;27.70;99.90;;;;;;5009175;28;19930;-74
2023/05/14 06:22:16;;;;;;;;;;;28.90;99.90;;;;;;5009878;28;19933;-74
2023/05/14 06:24:43;;;;;;;;;;;30.00;99.90;;;;;;5009553;28;19930;-74
2023/05/14 06:27:10;;;;;;;;;;;30.80;99.90;;;;;;5010676;28;20130;-74
2023/05/14 06:29:37;;;;;;;;;;;31.60;99.90;;;;;;5012343;28;19995;-73
2023/05/14 06:32:05;;;;;;;;;;;32.10;99.90;;;;;;5027186;28;19995;-73
2023/05/14 06:34:33;;;;;;;;;;;32.50;99.90;;;;;;5008654;28;19929;-73
2023/05/14 06:37:02;;;;;;;;;;;32.70;99.90;;;;;;5008442;28;19936;-74
2023/05/14 06:39:29;;;;;;;;;;;32.90;99.90;;;;;;5016879;28;20020;-74
2023/05/14 06:41:55;;;;;;;;;;;33.00;99.90;;;;;;5012555;28;19930;-74
2023/05/14 06:44:23;;;;;;;;;;;33.40;99.90;;;;;;5004517;28;19965;-74
2023/05/14 06:46:50;;;;;;;;;;;33.80;99.90;;;;;;5016613;28;20000;-72
2023/05/14 06:49:19;;;;;;;;;;;34.10;99.90;;;;;;5006632;28;19948;-73
2023/05/14 06:51:45;;;;;;;;;;;34.70;99.90;;;;;;5008586;28;19925;-74
2023/05/14 06:54:12;;;;;;;;;;;35.10;99.90;;;;;;5008085;28;19925;-73
2023/05/14 06:56:39;;;;;;;;;;;35.40;99.90;;;;;;5011075;28;19937;-75
2023/05/14 06:59:06;;;;;;;;;;;35.70;99.90;;;;;;5016958;28;19925;-74
2023/05/14 07:01:32;;;;;;;;;;;36.00;99.90;;;;;;5021965;28;20019;-74
2023/05/14 07:03:59;;;;;;;;;;;36.20;99.90;;;;;;5007286;28;19953;-74
2023/05/14 07:06:27;;;;;;;;;;;36.20;99.90;;;;;;5007397;28;20266;-74
2023/05/14 07:08:54;;;;;;;;;;;36.20;99.90;;;;;;5006403;28;19932;-75
2023/05/14 07:11:21;;;;;;;;;;;36.20;99.00;;;;;;5010983;28;19929;-75
2023/05/14 07:13:48;;;;;;;;;;;36.60;98.60;;;;;;5007795;28;19926;-75
2023/05/14 07:16:15;;;;;;;;;;;36.80;93.90;;;;;;5005522;28;19992;-75
2023/05/14 07:18:42;;;;;;;;;;;36.90;92.20;;;;;;5014325;28;19941;-74
2023/05/14 07:21:09;;;;;;;;;;;36.70;89.20;;;;;;5006489;28;20012;-75
2023/05/14 07:23:37;;;;;;;;;;;36.60;93.50;;;;;;5005581;28;19930;-75
2023/05/14 07:26:05;;;;;;;;;;;36.70;90.10;;;;;;5000345;28;20017;-74
2023/05/14 07:28:32;;;;;;;;;;;36.80;85.90;;;;;;5008889;28;19956;-75
2023/05/14 07:30:58;;;;;;;;;;;37.00;86.90;;;;;;5019182;28;19926;-75
2023/05/14 07:36:17;;;;;;;;;;;37.40;87.00;;;;;;5023826;28;19937;-74
2023/05/14 07:38:45;;;;;;;;;;;37.70;85.80;;;;;;5023994;28;19937;-73
2023/05/14 07:41:11;;;;;;;;;;;38.10;83.60;;;;;;5028156;28;19933;-74
2023/05/14 07:43:39;;;;;;;;;;;38.80;81.80;;;;;;5561158;22;19987;-73
2023/05/14 07:46:06;;;;;;;;;;;38.80;80.50;;;;;;5050250;28;20386;-74
2023/05/14 07:48:32;;;;;;;;;;;39.20;78.80;;;;;;5046292;28;19943;-74
2023/05/14 07:50:59;;;;;;;;;;;39.30;76.00;;;;;;5040467;28;20301;-73
2023/05/14 07:53:26;;;;;;;;;;;39.10;77.50;;;;;;5058399;28;19925;-74
2023/05/14 07:55:54;;;;;;;;;;;39.30;73.40;;;;;;5068410;28;19939;-75
2023/05/14 07:58:21;;;;;;;;;;;39.50;72.10;;;;;;5065012;28;19928;-75
2023/05/14 08:00:48;;;;;;;;;;;39.60;71.20;;;;;;5059487;28;19931;-75
2023/05/14 08:03:15;;;;;;;;;;;39.20;73.50;;;;;;5072217;22;19932;-74
2023/05/14 08:05:42;;;;;;;;;;;39.40;69.00;;;;;;5069801;28;20169;-76
2023/05/14 08:08:08;;;;;;;;;;;39.80;67.60;;;;;;5070828;28;19924;-75
2023/05/14 08:10:37;;;;;;;;;;;40.00;68.10;;;;;;5061124;28;19932;-74
2023/05/14 08:13:05;;;;;;;;;;;40.20;69.00;;;;;;5068258;28;19928;-74
2023/05/14 08:15:32;;;;;;;;;;;40.00;64.70;;;;;;5032900;28;19929;-71
2023/05/14 08:18:02;;;;;;;;;;;39.90;64.30;;;;;;5050733;28;20308;-73
2023/05/14 08:20:29;;;;;;;;;;;40.00;63.10;;;;;;5050471;28;19939;-73
2023/05/14 08:22:56;;;;;;;;;;;39.50;65.40;;;;;;5045010;28;19936;-74
2023/05/14 08:25:23;;;;;;;;;;;39.50;64.00;;;;;;5058603;28;19939;-74
2023/05/14 08:27:49;;;;;;;;;;;39.50;63.60;;;;;;5063333;28;20424;-73
2023/05/14 08:30:17;;;;;;;;;;;38.00;59.60;;;;;;5051985;28;19929;-73
2023/05/14 08:32:44;;;;;;;;;;;38.30;60.00;;;;;;5049867;28;19988;-75
2023/05/14 08:35:11;;;;;;;;;;;37.90;60.10;;;;;;5048413;28;20393;-75
2023/05/14 08:37:38;;;;;;;;;;;37.90;61.00;;;;;;5034219;28;20160;-75
2023/05/14 08:40:06;;;;;;;;;;;37.80;61.30;;;;;;5059547;28;19932;-76
2023/05/14 08:42:33;;;;;;;;;;;37.60;59.30;;;;;;5047678;28;19994;-75
2023/05/14 08:45:01;;;;;;;;;;;36.90;59.90;;;;;;5602724;22;19936;-74
2023/05/14 08:47:29;;;;;;;;;;;36.40;60.40;;;;;;5078788;28;20403;-76
2023/05/14 08:50:00;;;;;;;;;;;36.40;59.10;;;;;;5065031;28;20107;-75
2023/05/14 08:52:27;;;;;;;;;;;36.30;59.60;;;;;;5069016;28;19928;-74
2023/05/14 08:54:55;;;;;;;;;;;36.50;60.10;;;;;;5085883;28;19948;-73
2023/05/14 08:57:23;;;;;;;;;;;36.70;61.50;;;;;;5066118;28;19939;-73
2023/05/14 08:59:50;;;;;;;;;;;37.00;62.80;;;;;;5068187;28;20011;-74
2023/05/14 09:02:17;;;;;;;;;;;37.30;60.30;;;;;;5077421;28;19932;-75
2023/05/14 09:04:45;;;;;;;;;;;37.10;61.10;;;;;;5076909;28;19928;-74
2023/05/14 09:07:12;;;;;;;;;;;36.60;61.70;;;;;;5102578;22;19928;-77
2023/05/14 09:09:40;;;;;;;;;;;36.50;61.40;;;;;;5050451;28;20015;-78
2023/05/14 09:12:07;;;;;;;;;;;36.60;62.90;;;;;;5042145;28;20023;-78
2023/05/14 09:14:34;;;;;;;;;;;36.70;58.80;;;;;;5063946;28;20000;-78
2023/05/14 09:17:01;;;;;;;;;;;36.20;58.20;;;;;;5033958;28;20285;-77
2023/05/14 09:19:28;;;;;;;;;;;35.00;55.80;;;;;;5030618;28;20396;-77
2023/05/14 09:21:57;;;;;;;;;;;33.10;56.60;;;;;;5062501;28;19928;-77
2023/05/14 09:24:24;;;;;;;;;;;32.90;58.90;;;;;;5051644;28;19978;-77
2023/05/14 09:26:52;;;;;;;;;;;32.80;59.10;;;;;;5067704;28;20035;-76
2023/05/14 09:29:19;;;;;;;;;;;32.70;57.70;;;;;;5050397;28;19962;-77
2023/05/14 09:31:46;;;;;;;;;;;32.60;59.10;;;;;;5039826;28;19925;-77
2023/05/14 09:34:23;;;;;;;;;;;32.30;59.50;;;;;;5050521;28;20109;-77
2023/05/14 09:36:49;;;;;;;;;;;32.40;60.50;;;;;;5048234;28;20389;-77
2023/05/14 09:39:18;;;;;;;;;;;32.50;60.00;;;;;;5030031;28;19937;-77
2023/05/14 09:41:45;;;;;;;;;;;32.20;57.10;;;;;;5043074;28;20035;-77
2023/05/14 09:44:11;;;;;;;;;;;32.20;56.90;;;;;;5051252;28;19948;-77
2023/05/14 09:46:38;;;;;;;;;;;31.30;58.00;;;;;;5049020;28;19929;-76
2023/05/14 09:49:05;;;;;;;;;;;31.00;58.70;;;;;;5048072;28;19991;-76
2023/05/14 09:51:32;;;;;;;;;;;30.50;58.80;;;;;;5031329;28;19925;-75
2023/05/14 09:53:58;;;;;;;;;;;28.20;59.50;;;;;;5052189;28;20434;-76
2023/05/14 09:56:26;;;;;;;;;;;27.70;59.50;;;;;;5031260;28;19968;-76
2023/05/14 09:58:53;;;;;;;;;;;27.30;61.40;;;;;;5029880;28;20405;-76
2023/05/14 10:01:21;;;;;;;;;;;26.70;61.80;;;;;;5048816;28;19932;-76
2023/05/14 10:03:48;;;;;;;;;;;25.90;61.60;;;;;;5060111;28;20389;-76
2023/05/14 10:06:16;;;;;;;;;;;25.10;62.90;;;;;;5068447;28;19951;-76
2023/05/14 10:08:44;;;;;;;;;;;25.10;63.50;;;;;;5031152;28;20257;-76
2023/05/14 10:11:13;;;;;;;;;;;24.90;64.70;;;;;;5031427;28;19962;-77
2023/05/14 10:13:42;;;;;;;;;;;25.40;65.60;;;;;;5060387;28;19939;-76
2023/05/14 10:16:14;;;;;;;;;;;25.70;64.60;;;;;;5048493;28;19935;-77
2023/05/14 10:18:44;;;;;;;;;;;25.70;65.00;;;;;;5047369;28;19925;-76
2023/05/14 10:21:11;;;;;;;;;;;25.60;65.60;;;;;;5043713;28;20373;-76
2023/05/14 10:23:39;;;;;;;;;;;25.70;65.70;;;;;;5040068;28;19925;-76
2023/05/14 10:28:49;;;;;;;;;;;25.20;63.50;;;;;;5092649;22;19928;-76
2023/05/14 10:31:16;;;;;;;;;;;25.10;64.40;;;;;;5085884;28;20266;-76
2023/05/14 10:33:46;;;;;;;;;;;22.50;62.10;;;;;;5070962;28;19996;-77
2023/05/14 10:38:54;;;;;;;;;;;24.60;63.60;;;;;;5065040;28;20042;-77
2023/05/14 10:41:21;;;;;;;;;;;24.50;65.20;;;;;;5065243;28;19928;-77
2023/05/14 10:43:49;;;;;;;;;;;24.60;63.10;;;;;;5068338;28;19928;-76
2023/05/14 10:46:16;;;;;;;;;;;24.70;64.70;;;;;;5079490;28;19928;-78
2023/05/14 10:48:43;;;;;;;;;;;24.70;64.40;;;;;;5070323;28;20389;-77
2023/05/14 10:51:11;;;;;;;;;;;24.60;63.80;;;;;;5086012;28;19942;-76
2023/05/14 10:53:38;;;;;;;;;;;24.50;63.00;;;;;;5086303;28;19928;-76
2023/05/14 10:56:06;;;;;;;;;;;24.80;63.00;;;;;;5084168;28;19928;-76
2023/05/14 10:58:35;;;;;;;;;;;24.80;62.70;;;;;;5085182;28;19928;-73
2023/05/14 11:01:04;;;;;;;;;;;25.20;63.10;;;;;;5064556;28;19935;-73
2023/05/14 11:03:31;;;;;;;;;;;25.60;63.10;;;;;;5065139;28;20432;-73
2023/05/14 11:05:59;;;;;;;;;;;26.20;61.10;;;;;;5064858;28;19925;-73
2023/05/14 11:08:27;;;;;;;;;;;26.20;60.80;;;;;;5079343;28;19928;-73
2023/05/14 11:10:54;;;;;;;;;;;26.40;60.40;;;;;;5078824;28;20821;-73
2023/05/14 11:13:22;;;;;;;;;;;26.40;56.20;;;;;;5085926;28;20404;-73
2023/05/14 11:18:41;;;;;;;;;;;25.90;56.80;;;;;;5169838;22;20386;-72
2023/05/14 11:21:08;;;;;;;;;;;26.00;58.30;;;;;;5061977;28;19987;-72
2023/05/14 11:23:34;;;;;;;;;;;25.90;57.90;;;;;;5074339;28;19928;-72
2023/05/14 11:26:01;;;;;;;;;;;26.10;59.70;;;;;;5075671;28;19928;-72
2023/05/14 11:28:28;;;;;;;;;;;26.20;58.70;;;;;;5056564;28;19928;-72
2023/05/14 11:30:56;;;;;;;;;;;26.20;58.60;;;;;;5047188;22;19936;-74
2023/05/14 11:33:22;;;;;;;;;;;26.40;59.00;;;;;;5044477;28;20457;-75
2023/05/14 11:35:50;;;;;;;;;;;26.60;59.00;;;;;;5049517;28;19928;-75
2023/05/14 11:38:17;;;;;;;;;;;26.70;58.70;;;;;;5046608;28;19929;-75
2023/05/14 11:40:51;;;;;;;;;;;26.50;58.70;;;;;;5053012;28;20340;-75
2023/05/14 11:43:18;;;;;;;;;;;26.40;58.90;;;;;;5058456;28;19928;-75
2023/05/14 11:45:49;;;;;;;;;;;26.00;56.00;;;;;;5066983;28;19929;-72
2023/05/14 11:48:16;;;;;;;;;;;25.30;55.90;;;;;;5044079;28;19936;-73
2023/05/14 11:50:44;;;;;;;;;;;25.20;57.50;;;;;;5047228;28;19945;-73
2023/05/14 11:53:15;;;;;;;;;;;25.50;57.90;;;;;;5046437;28;19929;-74
2023/05/14 11:55:42;;;;;;;;;;;25.80;56.70;;;;;;5046606;28;19947;-74
2023/05/14 11:58:09;;;;;;;;;;;26.00;57.50;;;;;;5058542;28;19932;-74
2023/05/14 12:00:37;;;;;;;;;;;26.50;57.40;;;;;;5058250;28;19929;-74
2023/05/14 12:03:04;;;;;;;;;;;26.90;57.20;;;;;;5030627;28;19986;-73
2023/05/14 12:05:30;;;;;;;;;;;26.80;56.00;;;;;;5049998;28;20381;-72
2023/05/14 12:07:57;;;;;;;;;;;26.70;56.40;;;;;;5058112;28;20377;-73
2023/05/14 12:10:25;;;;;;;;;;;26.80;55.20;;;;;;5049157;28;19933;-74
2023/05/14 12:12:51;;;;;;;;;;;26.60;55.20;;;;;;5052648;28;20405;-73
2023/05/14 12:15:20;;;;;;;;;;;26.50;55.90;;;;;;5066495;28;20050;-73
2023/05/14 12:17:49;;;;;;;;;;;26.40;56.40;;;;;;5066756;28;20319;-73
2023/05/14 12:20:17;;;;;;;;;;;26.70;57.50;;;;;;5066059;28;19928;-74
2023/05/14 12:22:43;;;;;;;;;;;26.80;58.10;;;;;;5063878;28;20015;-75
2023/05/14 12:25:13;;;;;;;;;;;27.00;57.60;;;;;;5047943;28;19940;-75
2023/05/14 12:27:44;;;;;;;;;;;27.10;56.20;;;;;;5046569;28;19924;-74
2023/05/14 12:30:12;;;;;;;;;;;27.10;57.20;;;;;;5045854;28;20019;-74
2023/05/14 12:32:39;;;;;;;;;;;27.10;56.90;;;;;;5058876;28;19938;-72
2023/05/14 12:35:06;;;;;;;;;;;26.40;55.90;;;;;;5046182;28;19940;-75
2023/05/14 12:37:35;;;;;;;;;;;25.90;57.00;;;;;;5046659;28;19929;-72
2023/05/14 12:40:01;;;;;;;;;;;26.10;58.60;;;;;;5046869;28;19929;-73
2023/05/14 12:42:28;;;;;;;;;;;26.30;58.40;;;;;;5050274;28;19981;-73
2023/05/14 12:44:56;;;;;;;;;;;26.70;58.20;;;;;;5048809;28;19933;-73
2023/05/14 12:47:22;;;;;;;;;;;26.90;57.50;;;;;;5046116;28;20197;-74
2023/05/14 12:49:49;;;;;;;;;;;27.10;57.50;;;;;;5046440;28;20466;-74
2023/05/14 12:52:16;;;;;;;;;;;27.20;56.80;;;;;;5047933;28;19972;-74
2023/05/14 12:54:43;;;;;;;;;;;27.30;56.70;;;;;;5065908;28;19935;-74
2023/05/14 12:57:09;;;;;;;;;;;27.40;57.00;;;;;;5066328;28;19925;-75
2023/05/14 12:59:36;;;;;;;;;;;27.20;57.70;;;;;;5060087;28;20028;-74
2023/05/14 13:02:04;;;;;;;;;;;27.10;57.50;;;;;;5049341;28;19928;-73
2023/05/14 13:04:31;;;;;;;;;;;26.70;57.90;;;;;;5049899;28;19929;-74
2023/05/14 13:06:57;;;;;;;;;;;26.30;58.30;;;;;;5063809;28;19932;-74
2023/05/14 13:09:26;;;;;;;;;;;25.70;58.90;;;;;;5049452;28;19932;-74
2023/05/14 13:11:53;;;;;;;;;;;25.70;58.90;;;;;;5055785;28;19928;-74
2023/05/14 13:14:19;;;;;;;;;;;25.50;58.40;;;;;;5052325;28;20385;-73
2023/05/14 13:16:46;;;;;;;;;;;25.10;58.30;;;;;;5050530;28;19929;-73
2023/05/14 13:19:14;;;;;;;;;;;24.60;58.50;;;;;;5047971;28;19929;-73
2023/05/14 13:21:41;;;;;;;;;;;24.80;58.80;;;;;;5051389;28;20286;-73
2023/05/14 13:24:08;;;;;;;;;;;24.90;59.00;;;;;;5067537;28;19959;-74
2023/05/14 13:26:35;;;;;;;;;;;25.10;58.60;;;;;;5069279;28;20015;-73
2023/05/14 13:29:02;;;;;;;;;;;25.20;58.10;;;;;;5068298;28;19925;-73
2023/05/14 13:31:29;;;;;;;;;;;25.60;58.30;;;;;;5064773;28;19932;-74
2023/05/14 13:33:56;;;;;;;;;;;26.00;58.40;;;;;;5052936;28;19924;-73
2023/05/14 13:36:24;;;;;;;;;;;26.60;59.00;;;;;;5051842;28;19932;-74
2023/05/14 13:38:51;;;;;;;;;;;27.00;57.00;;;;;;5048343;28;19999;-74
2023/05/14 13:41:18;;;;;;;;;;;27.00;56.80;;;;;;5048524;28;19929;-74
2023/05/14 13:43:44;;;;;;;;;;;27.10;57.70;;;;;;5061716;28;19929;-74
2023/05/14 13:46:11;;;;;;;;;;;27.10;56.40;;;;;;5069180;28;19935;-74
2023/05/14 13:48:38;;;;;;;;;;;27.10;55.70;;;;;;5056738;28;19924;-74
2023/05/14 13:51:04;;;;;;;;;;;27.40;56.70;;;;;;5063682;28;19936;-74
2023/05/14 13:53:32;;;;;;;;;;;27.40;55.70;;;;;;5068587;28;19935;-75
2023/05/14 13:56:00;;;;;;;;;;;27.10;55.80;;;;;;5063190;28;19929;-74
2023/05/14 13:58:27;;;;;;;;;;;27.00;56.70;;;;;;5056028;28;19928;-74
2023/05/14 14:00:54;;;;;;;;;;;26.90;56.60;;;;;;5054285;28;20298;-74
2023/05/14 14:03:20;;;;;;;;;;;26.90;58.00;;;;;;5030754;28;19935;-74
2023/05/14 14:05:47;;;;;;;;;;;27.00;58.30;;;;;;5030797;28;19936;-74
2023/05/14 14:08:14;;;;;;;;;;;27.10;58.60;;;;;;5048649;28;19959;-74
2023/05/14 14:10:42;;;;;;;;;;;27.20;58.40;;;;;;5579637;22;19948;-73
2023/05/14 14:13:09;;;;;;;;;;;27.10;58.10;;;;;;5088549;28;20368;-74
2023/05/14 14:15:36;;;;;;;;;;;26.90;58.40;;;;;;5089803;28;19950;-73
2023/05/14 14:18:03;;;;;;;;;;;27.00;59.10;;;;;;5108719;28;19972;-73
2023/05/14 14:20:30;;;;;;;;;;;27.40;59.10;;;;;;5075831;28;19928;-73
2023/05/14 14:22:57;;;;;;;;;;;27.60;59.70;;;;;;5068453;28;19928;-74
2023/05/14 14:25:24;;;;;;;;;;;27.60;57.30;;;;;;5074995;22;19928;-87
2023/05/14 14:27:53;;;;;;;;;;;27.70;57.10;;;;;;5056879;28;19925;-84
2023/05/14 14:30:20;;;;;;;;;;;27.50;58.20;;;;;;5052395;28;19955;-88
2023/05/14 14:32:47;;;;;;;;;;;27.10;57.20;;;;;;5052083;28;19932;-87